Time;durP1;ratioP1;P1;durP2;ratioP2;P2;SDS_P1;SDS_P2;PMS_P1;PMS_P2;Temp;Humidity;BMP_temperature;BMP_pressure;BME280_temperature;BME280_humidity;BME280_pressure;Samples;Min_cycle;Max_cycle;Signal;HPM_P1;HPM_P2
2023/02/04 00:01:29;;;;;;;39.53;21.17;;;;;;;;;;4349241;32;318534;-88
2023/02/04 00:03:56;;;;;;;48.17;27.67;;;;;;;;;;4358532;32;318446;-88
2023/02/04 00:06:23;;;;;;;63.53;32.67;;;;;;;;;;4347794;32;318405;-88
2023/02/04 00:08:50;;;;;;;56.13;30.67;;;;;;;;;;4357756;32;337733;-87
2023/02/04 00:11:18;;;;;;;56.90;31.10;;;;;;;;;;4347536;32;318676;-87
2023/02/04 00:13:46;;;;;;;46.73;24.83;;;;;;;;;;4357511;32;318167;-88
2023/02/04 00:16:13;;;;;;;34.03;21.23;;;;;;;;;;4348658;32;318598;-87
2023/02/04 00:18:39;;;;;;;49.97;23.30;;;;;;;;;;4359823;32;318476;-87
2023/02/04 00:21:06;;;;;;;20.13;12.77;;;;;;;;;;4349614;32;318221;-88
2023/02/04 00:23:33;;;;;;;23.03;13.77;;;;;;;;;;4359832;32;318478;-88
2023/02/04 00:26:00;;;;;;;25.73;14.70;;;;;;;;;;4357313;32;318476;-89
2023/02/04 00:28:29;;;;;;;23.43;14.67;;;;;;;;;;4346940;32;344147;-88
2023/02/04 00:30:55;;;;;;;19.00;11.37;;;;;;;;;;4358538;32;317807;-88
2023/02/04 00:33:22;;;;;;;21.23;12.40;;;;;;;;;;4346612;32;318780;-87
2023/02/04 00:35:49;;;;;;;15.67;9.53;;;;;;;;;;4358813;32;317903;-88
2023/02/04 00:38:16;;;;;;;19.73;11.50;;;;;;;;;;4347895;32;327103;-87
2023/02/04 00:40:43;;;;;;;28.23;16.60;;;;;;;;;;4356900;32;318561;-86
2023/02/04 00:43:10;;;;;;;13.97;8.63;;;;;;;;;;4346624;32;369687;-88
2023/02/04 00:45:38;;;;;;;14.37;10.20;;;;;;;;;;4358088;32;316700;-87
2023/02/04 00:48:05;;;;;;;24.03;11.73;;;;;;;;;;4358040;32;317637;-87
2023/02/04 00:50:33;;;;;;;15.57;9.33;;;;;;;;;;4344634;32;417821;-87
2023/02/04 00:53:00;;;;;;;32.27;15.53;;;;;;;;;;4356574;32;317330;-87
2023/02/04 00:55:27;;;;;;;26.20;14.73;;;;;;;;;;4347532;32;317740;-87
2023/02/04 00:57:54;;;;;;;20.77;11.97;;;;;;;;;;4356848;32;317881;-87
2023/02/04 01:00:21;;;;;;;15.47;10.33;;;;;;;;;;4346568;32;317562;-87
2023/02/04 01:02:49;;;;;;;22.17;13.40;;;;;;;;;;4357513;32;317635;-87
2023/02/04 01:05:16;;;;;;;18.77;10.00;;;;;;;;;;4346609;32;318466;-87
2023/02/04 01:07:43;;;;;;;14.27;9.00;;;;;;;;;;4356013;32;317588;-87
2023/02/04 01:10:11;;;;;;;23.53;11.47;;;;;;;;;;4347017;32;317016;-87
2023/02/04 01:12:38;;;;;;;18.43;9.97;;;;;;;;;;4357637;32;318411;-87
2023/02/04 01:15:05;;;;;;;42.77;21.00;;;;;;;;;;4357415;32;316599;-87
2023/02/04 01:17:32;;;;;;;31.53;18.37;;;;;;;;;;4343525;32;417227;-87
2023/02/04 01:20:00;;;;;;;27.87;15.90;;;;;;;;;;4357518;32;318285;-88
2023/02/04 01:22:27;;;;;;;14.60;8.70;;;;;;;;;;4346288;32;317601;-88
2023/02/04 01:24:54;;;;;;;20.57;11.20;;;;;;;;;;4357559;32;317532;-87
2023/02/04 01:27:20;;;;;;;15.37;10.87;;;;;;;;;;4347499;32;318530;-88
2023/02/04 01:29:47;;;;;;;18.00;10.30;;;;;;;;;;4357729;32;318551;-87
2023/02/04 01:32:14;;;;;;;15.60;10.47;;;;;;;;;;4346501;32;318496;-88
2023/02/04 01:34:41;;;;;;;25.87;13.43;;;;;;;;;;4356477;32;317557;-88
2023/02/04 01:37:09;;;;;;;27.83;15.67;;;;;;;;;;4347435;32;322710;-88
2023/02/04 01:39:36;;;;;;;31.27;15.37;;;;;;;;;;4369953;32;316889;-87
2023/02/04 01:42:04;;;;;;;22.97;13.07;;;;;;;;;;4372494;32;317454;-88
2023/02/04 01:44:31;;;;;;;23.73;13.47;;;;;;;;;;4360912;32;415775;-88
2023/02/04 01:46:58;;;;;;;25.40;14.23;;;;;;;;;;4373876;32;316233;-87
2023/02/04 01:49:25;;;;;;;22.43;13.60;;;;;;;;;;4363882;32;316409;-87
2023/02/04 01:51:52;;;;;;;16.73;8.80;;;;;;;;;;4367507;32;316148;-88
2023/02/04 01:54:20;;;;;;;11.53;6.63;;;;;;;;;;4347786;32;316739;-87
2023/02/04 01:56:50;;;;;;;12.90;8.17;;;;;;;;;;4356452;32;316640;-87
2023/02/04 01:59:18;;;;;;;11.07;8.23;;;;;;;;;;4347468;32;317204;-87
2023/02/04 02:01:47;;;;;;;12.97;7.40;;;;;;;;;;4357645;32;316960;-88
2023/02/04 02:04:16;;;;;;;13.47;8.17;;;;;;;;;;4347423;32;317790;-87
2023/02/04 02:06:47;;;;;;;12.13;8.03;;;;;;;;;;4357099;32;316529;-87
2023/02/04 02:09:14;;;;;;;15.40;8.73;;;;;;;;;;4347404;32;316689;-87
2023/02/04 02:11:42;;;;;;;12.43;7.70;;;;;;;;;;4357479;32;317371;-88
2023/02/04 02:14:09;;;;;;;13.40;8.80;;;;;;;;;;4345908;32;317125;-88
2023/02/04 02:16:36;;;;;;;10.13;7.23;;;;;;;;;;4356651;32;317437;-88
2023/02/04 02:19:05;;;;;;;9.57;7.63;;;;;;;;;;4355865;32;317680;-87
2023/02/04 02:21:37;;;;;;;15.60;7.63;;;;;;;;;;4326998;33;415046;-88
2023/02/04 02:24:25;;;;;;;13.87;7.13;;;;;;;;;;4340880;32;317465;-88
2023/02/04 02:26:53;;;;;;;12.70;7.83;;;;;;;;;;4329283;32;416381;-88
2023/02/04 02:29:20;;;;;;;22.33;13.53;;;;;;;;;;4335357;32;317566;-88
2023/02/04 02:31:47;;;;;;;24.53;13.80;;;;;;;;;;4345156;32;318777;-88
2023/02/04 02:34:13;;;;;;;20.90;12.13;;;;;;;;;;4335337;32;318420;-88
2023/02/04 02:36:41;;;;;;;20.10;12.43;;;;;;;;;;4343756;32;318541;-87
2023/02/04 02:39:09;;;;;;;24.60;12.93;;;;;;;;;;4334865;32;317542;-87
2023/02/04 02:41:36;;;;;;;21.97;13.77;;;;;;;;;;4344505;32;318286;-88
2023/02/04 02:44:03;;;;;;;32.20;14.53;;;;;;;;;;4344210;32;318345;-87
2023/02/04 02:46:33;;;;;;;21.00;12.47;;;;;;;;;;4331164;32;417728;-88
2023/02/04 02:49:00;;;;;;;18.73;12.43;;;;;;;;;;4344490;32;318664;-87
2023/02/04 02:51:28;;;;;;;25.53;13.73;;;;;;;;;;4332944;32;345625;-87
2023/02/04 02:53:55;;;;;;;17.57;9.73;;;;;;;;;;4344580;32;317715;-87
2023/02/04 02:56:23;;;;;;;15.13;8.40;;;;;;;;;;4334357;32;317134;-87
2023/02/04 02:58:50;;;;;;;14.00;8.27;;;;;;;;;;4343351;32;316950;-87
2023/02/04 03:01:17;;;;;;;16.73;7.63;;;;;;;;;;4334878;32;317500;-86
2023/02/04 03:03:47;;;;;;;14.17;8.83;;;;;;;;;;4344096;32;316516;-87
2023/02/04 03:06:19;;;;;;;14.13;8.30;;;;;;;;;;4334839;32;317466;-87
2023/02/04 03:08:48;;;;;;;14.13;7.77;;;;;;;;;;4346006;32;317202;-88
2023/02/04 03:11:15;;;;;;;12.07;7.90;;;;;;;;;;4334985;32;327050;-88
2023/02/04 03:13:43;;;;;;;11.00;7.60;;;;;;;;;;4345777;32;317504;-87
2023/02/04 03:16:10;;;;;;;9.43;7.57;;;;;;;;;;4334768;32;316398;-87
2023/02/04 03:18:39;;;;;;;13.93;9.07;;;;;;;;;;4344372;32;316651;-87
2023/02/04 03:21:07;;;;;;;13.00;10.13;;;;;;;;;;4335220;32;317185;-85
2023/02/04 03:23:35;;;;;;;18.53;11.17;;;;;;;;;;4346005;32;317538;-87
2023/02/04 03:26:02;;;;;;;18.87;9.70;;;;;;;;;;4344312;32;317281;-88
2023/02/04 03:28:30;;;;;;;15.03;9.67;;;;;;;;;;4334336;32;316838;-88
2023/02/04 03:30:59;;;;;;;14.57;9.93;;;;;;;;;;4344914;32;317313;-88
2023/02/04 03:33:30;;;;;;;21.53;12.50;;;;;;;;;;4334109;32;316612;-88
2023/02/04 03:35:57;;;;;;;20.03;12.07;;;;;;;;;;4358593;32;318277;-88
2023/02/04 03:38:24;;;;;;;20.20;13.27;;;;;;;;;;4349052;32;317253;-88
2023/02/04 03:40:50;;;;;;;22.80;12.33;;;;;;;;;;4359771;32;317023;-88
2023/02/04 03:43:17;;;;;;;23.13;13.90;;;;;;;;;;4348842;32;316642;-88
2023/02/04 03:45:44;;;;;;;18.67;11.53;;;;;;;;;;4358771;32;316099;-88
2023/02/04 03:48:12;;;;;;;14.93;10.73;;;;;;;;;;4348915;32;356956;-88
2023/02/04 03:50:40;;;;;;;24.10;13.57;;;;;;;;;;4357976;32;316605;-87
2023/02/04 03:53:07;;;;;;;21.63;12.37;;;;;;;;;;4349495;32;352861;-86
2023/02/04 03:55:34;;;;;;;25.37;12.53;;;;;;;;;;4358494;32;351136;-88
2023/02/04 03:58:01;;;;;;;24.77;12.57;;;;;;;;;;4343073;32;317621;-88
2023/02/04 04:00:28;;;;;;;27.63;12.63;;;;;;;;;;4333178;32;318098;-88
2023/02/04 04:02:56;;;;;;;19.20;11.30;;;;;;;;;;4348621;32;317399;-88
2023/02/04 04:05:26;;;;;;;18.90;12.23;;;;;;;;;;4338564;32;318597;-88
2023/02/04 04:07:53;;;;;;;16.87;10.83;;;;;;;;;;4346952;32;317531;-88
2023/02/04 04:10:20;;;;;;;19.57;11.80;;;;;;;;;;4342547;32;318340;-88
2023/02/04 04:12:47;;;;;;;14.90;9.87;;;;;;;;;;4344311;32;317476;-88
2023/02/04 04:15:14;;;;;;;17.43;10.00;;;;;;;;;;4333856;32;316321;-87
2023/02/04 04:17:40;;;;;;;15.70;10.60;;;;;;;;;;4342699;32;317799;-87
2023/02/04 04:20:08;;;;;;;15.20;10.00;;;;;;;;;;4332196;32;318584;-88
2023/02/04 04:22:36;;;;;;;27.17;12.13;;;;;;;;;;4343711;32;317532;-87
2023/02/04 04:25:03;;;;;;;21.17;12.50;;;;;;;;;;4342281;32;318697;-87
2023/02/04 04:27:30;;;;;;;25.13;12.93;;;;;;;;;;4329192;32;417699;-87
2023/02/04 04:29:57;;;;;;;28.93;15.83;;;;;;;;;;4341846;32;317602;-87
2023/02/04 04:32:24;;;;;;;26.60;16.27;;;;;;;;;;4331988;32;318479;-86
2023/02/04 04:34:51;;;;;;;25.43;14.30;;;;;;;;;;4340730;32;348584;-86
2023/02/04 04:37:18;;;;;;;27.50;17.27;;;;;;;;;;4333171;32;318601;-86
2023/02/04 04:39:46;;;;;;;24.67;15.93;;;;;;;;;;4342647;32;318314;-87
2023/02/04 04:42:13;;;;;;;25.47;15.73;;;;;;;;;;4332180;32;355753;-87
2023/02/04 04:44:40;;;;;;;34.30;18.43;;;;;;;;;;4343005;32;317482;-89
2023/02/04 04:47:07;;;;;;;34.67;18.47;;;;;;;;;;4333603;32;318616;-88
2023/02/04 04:49:33;;;;;;;29.77;17.90;;;;;;;;;;4342608;32;317525;-88
2023/02/04 04:52:00;;;;;;;33.70;20.63;;;;;;;;;;4341823;32;317987;-88
2023/02/04 04:54:27;;;;;;;30.47;19.03;;;;;;;;;;4332056;32;318011;-88
2023/02/04 04:56:55;;;;;;;22.73;14.87;;;;;;;;;;4342609;32;318515;-87
2023/02/04 04:59:22;;;;;;;16.33;11.33;;;;;;;;;;4331498;32;318878;-87
2023/02/04 05:01:49;;;;;;;15.20;9.97;;;;;;;;;;4343069;32;318476;-88
2023/02/04 05:04:16;;;;;;;16.27;10.03;;;;;;;;;;4332774;32;317225;-88
2023/02/04 05:06:43;;;;;;;12.07;8.53;;;;;;;;;;4343098;32;317444;-87
2023/02/04 05:09:10;;;;;;;12.27;8.47;;;;;;;;;;4331665;32;317757;-87
2023/02/04 05:11:37;;;;;;;15.33;9.93;;;;;;;;;;4341810;32;316742;-88
2023/02/04 05:14:05;;;;;;;15.27;9.57;;;;;;;;;;4342484;32;316507;-88
2023/02/04 05:16:32;;;;;;;20.53;11.93;;;;;;;;;;4343416;32;416249;-88
2023/02/04 05:18:59;;;;;;;18.73;11.13;;;;;;;;;;4357380;32;317436;-88
2023/02/04 05:21:26;;;;;;;15.33;10.73;;;;;;;;;;4347796;32;317782;-87
2023/02/04 05:23:52;;;;;;;18.33;11.90;;;;;;;;;;4356320;32;318293;-87
2023/02/04 05:26:19;;;;;;;19.93;11.73;;;;;;;;;;4346532;32;318846;-86
2023/02/04 05:28:46;;;;;;;22.33;13.13;;;;;;;;;;4357421;32;317196;-86
2023/02/04 05:31:14;;;;;;;23.13;15.73;;;;;;;;;;4347620;32;318283;-85
2023/02/04 05:33:41;;;;;;;20.10;13.67;;;;;;;;;;4357098;32;317509;-87
2023/02/04 05:36:08;;;;;;;22.10;15.57;;;;;;;;;;4350976;32;318223;-86
2023/02/04 05:38:34;;;;;;;19.27;13.50;;;;;;;;;;4355681;32;317816;-87
2023/02/04 05:41:01;;;;;;;19.63;13.07;;;;;;;;;;4356318;32;352209;-87
2023/02/04 05:43:28;;;;;;;19.10;13.13;;;;;;;;;;4347248;32;318447;-88
2023/02/04 05:45:54;;;;;;;13.67;11.67;;;;;;;;;;4357555;32;317599;-87
2023/02/04 05:48:23;;;;;;;22.70;13.90;;;;;;;;;;4345859;32;317894;-88
2023/02/04 05:50:50;;;;;;;39.67;14.63;;;;;;;;;;4353911;32;317949;-85
2023/02/04 05:53:16;;;;;;;25.77;15.07;;;;;;;;;;4353099;32;317696;-88
2023/02/04 05:55:43;;;;;;;30.43;18.83;;;;;;;;;;4358663;32;332140;-88
2023/02/04 05:58:10;;;;;;;27.80;18.50;;;;;;;;;;4363757;32;317297;-88
2023/02/04 06:00:37;;;;;;;35.53;20.83;;;;;;;;;;4373677;32;316381;-88
2023/02/04 06:03:03;;;;;;;29.30;19.10;;;;;;;;;;4371610;32;317142;-88
2023/02/04 06:05:32;;;;;;;28.27;18.90;;;;;;;;;;4360068;32;417453;-88
2023/02/04 06:07:59;;;;;;;28.03;17.40;;;;;;;;;;4373640;32;316146;-88
2023/02/04 06:10:25;;;;;;;26.37;18.93;;;;;;;;;;4355561;32;317268;-87
2023/02/04 06:12:52;;;;;;;25.13;18.40;;;;;;;;;;4351437;32;317483;-87
2023/02/04 06:15:19;;;;;;;28.57;18.10;;;;;;;;;;4347362;32;318345;-88
2023/02/04 06:17:46;;;;;;;43.07;28.03;;;;;;;;;;4356088;32;317593;-88
2023/02/04 06:20:14;;;;;;;76.53;40.03;;;;;;;;;;4347247;32;317963;-87
2023/02/04 06:22:42;;;;;;;70.17;39.40;;;;;;;;;;4357687;32;318461;-88
2023/02/04 06:25:09;;;;;;;47.87;28.40;;;;;;;;;;4347608;32;317492;-87
2023/02/04 06:27:36;;;;;;;33.13;24.07;;;;;;;;;;4358051;32;318865;-88
2023/02/04 06:30:03;;;;;;;35.60;24.20;;;;;;;;;;4355226;32;317676;-87
2023/02/04 06:32:29;;;;;;;36.33;24.53;;;;;;;;;;4346009;32;317518;-88
2023/02/04 06:34:56;;;;;;;38.00;25.57;;;;;;;;;;4356598;32;317753;-87
2023/02/04 06:37:23;;;;;;;34.53;25.13;;;;;;;;;;4345695;32;318860;-88
2023/02/04 06:39:53;;;;;;;44.17;26.30;;;;;;;;;;4356777;32;317845;-87
2023/02/04 06:42:20;;;;;;;36.60;26.13;;;;;;;;;;4346548;32;318424;-87
2023/02/04 06:44:47;;;;;;;48.93;29.83;;;;;;;;;;4355902;32;317585;-88
2023/02/04 06:47:13;;;;;;;54.87;32.67;;;;;;;;;;4345470;32;318085;-87
2023/02/04 06:49:40;;;;;;;58.83;44.17;;;;;;;;;;4356578;32;318435;-87
2023/02/04 06:52:07;;;;;;;53.97;38.23;;;;;;;;;;4346056;32;350633;-86
2023/02/04 06:54:34;;;;;;;51.60;30.37;;;;;;;;;;4356252;32;318259;-87
2023/02/04 06:57:05;;;;;;;35.63;24.37;;;;;;;;;;4356251;32;317634;-87
2023/02/04 06:59:32;;;;;;;43.60;28.27;;;;;;;;;;4343885;32;417453;-88
2023/02/04 07:01:59;;;;;;;54.03;33.37;;;;;;;;;;4356971;32;317350;-88
2023/02/04 07:04:26;;;;;;;53.20;33.23;;;;;;;;;;4346395;32;318296;-87
2023/02/04 07:06:53;;;;;;;58.10;34.83;;;;;;;;;;4356606;32;318506;-88
2023/02/04 07:09:20;;;;;;;68.33;42.07;;;;;;;;;;4345311;32;317441;-88
2023/02/04 07:11:46;;;;;;;35.37;22.33;;;;;;;;;;4355390;32;317528;-87
2023/02/04 07:14:15;;;;;;;33.33;22.97;;;;;;;;;;4347679;32;327417;-88
2023/02/04 07:16:41;;;;;;;60.30;38.70;;;;;;;;;;4357970;32;317635;-88
2023/02/04 07:19:08;;;;;;;35.20;25.33;;;;;;;;;;4348502;32;338027;-87
2023/02/04 07:21:35;;;;;;;41.07;29.00;;;;;;;;;;4359036;32;318756;-87
2023/02/04 07:24:02;;;;;;;47.30;31.03;;;;;;;;;;4358534;32;317749;-88
2023/02/04 07:26:29;;;;;;;69.03;41.57;;;;;;;;;;4348185;32;317780;-88
2023/02/04 07:28:56;;;;;;;94.23;54.37;;;;;;;;;;4358538;32;342767;-87
2023/02/04 07:31:24;;;;;;;65.93;43.83;;;;;;;;;;4349194;32;318660;-87
2023/02/04 07:33:51;;;;;;;60.20;38.37;;;;;;;;;;4358832;32;318563;-87
2023/02/04 07:36:18;;;;;;;69.83;44.37;;;;;;;;;;4349562;32;318347;-88
2023/02/04 07:38:45;;;;;;;72.50;49.60;;;;;;;;;;4358882;32;318290;-88
2023/02/04 07:41:12;;;;;;;72.57;48.03;;;;;;;;;;4348050;32;317690;-88
2023/02/04 07:43:38;;;;;;;66.30;45.60;;;;;;;;;;4358182;32;317550;-87
2023/02/04 07:46:06;;;;;;;69.50;47.67;;;;;;;;;;4359297;32;318529;-87
2023/02/04 07:48:34;;;;;;;63.10;41.10;;;;;;;;;;4343867;32;418221;-88
2023/02/04 07:51:00;;;;;;;70.43;49.17;;;;;;;;;;4357737;32;317655;-88
2023/02/04 07:53:27;;;;;;;84.33;54.30;;;;;;;;;;4357108;32;331259;-87
2023/02/04 07:55:54;;;;;;;79.90;54.73;;;;;;;;;;4373040;32;316202;-88
2023/02/04 07:58:21;;;;;;;73.33;46.90;;;;;;;;;;4363845;32;318320;-87
2023/02/04 08:00:49;;;;;;;71.77;49.40;;;;;;;;;;4373747;32;317051;-87
2023/02/04 08:03:15;;;;;;;71.70;45.63;;;;;;;;;;4363868;32;317327;-87
2023/02/04 08:05:43;;;;;;;80.70;47.73;;;;;;;;;;4375207;32;316131;-88
2023/02/04 08:08:11;;;;;;;66.33;43.67;;;;;;;;;;4355620;32;318253;-87
2023/02/04 08:10:38;;;;;;;161.67;77.17;;;;;;;;;;4361103;32;318244;-88
2023/02/04 08:13:05;;;;;;;120.10;71.50;;;;;;;;;;4359418;32;319313;-87
2023/02/04 08:15:32;;;;;;;127.37;71.07;;;;;;;;;;4346847;32;417901;-87
2023/02/04 08:17:58;;;;;;;111.40;72.80;;;;;;;;;;4357963;32;319258;-88
2023/02/04 08:20:25;;;;;;;134.90;80.00;;;;;;;;;;4348320;32;319167;-87
2023/02/04 08:22:57;;;;;;;155.33;93.20;;;;;;;;;;4359290;32;318605;-88
2023/02/04 08:25:24;;;;;;;160.40;93.23;;;;;;;;;;4347341;32;319101;-87
2023/02/04 08:27:51;;;;;;;158.13;98.63;;;;;;;;;;4358014;32;318882;-87
2023/02/04 08:30:18;;;;;;;134.23;87.17;;;;;;;;;;4347072;32;319518;-88
2023/02/04 08:32:45;;;;;;;117.83;78.20;;;;;;;;;;4358606;32;319714;-88
2023/02/04 08:35:12;;;;;;;126.43;80.00;;;;;;;;;;4347578;32;319678;-87
2023/02/04 08:37:39;;;;;;;80.87;54.47;;;;;;;;;;4359113;32;318796;-87
2023/02/04 08:40:08;;;;;;;88.43;55.70;;;;;;;;;;4347995;32;317733;-88
2023/02/04 08:42:35;;;;;;;92.40;58.90;;;;;;;;;;4358124;32;317607;-87
2023/02/04 08:45:02;;;;;;;96.23;61.77;;;;;;;;;;4358400;32;318196;-88
2023/02/04 08:47:29;;;;;;;94.53;56.37;;;;;;;;;;4350697;32;317626;-88
2023/02/04 08:49:56;;;;;;;81.40;51.53;;;;;;;;;;4360818;32;318616;-87
2023/02/04 08:52:23;;;;;;;60.00;37.03;;;;;;;;;;4348842;32;317851;-89
2023/02/04 08:54:49;;;;;;;69.40;46.67;;;;;;;;;;4359075;32;355775;-86
2023/02/04 08:57:17;;;;;;;95.77;59.40;;;;;;;;;;4352910;32;318387;-88
2023/02/04 08:59:45;;;;;;;80.47;49.80;;;;;;;;;;4365718;32;318012;-88
2023/02/04 09:02:12;;;;;;;82.17;52.53;;;;;;;;;;4353597;32;327861;-90
2023/02/04 09:04:39;;;;;;;81.80;53.37;;;;;;;;;;4362244;32;318167;-88
2023/02/04 09:07:06;;;;;;;88.97;59.37;;;;;;;;;;4362910;32;318393;-87
2023/02/04 09:09:33;;;;;;;75.30;51.50;;;;;;;;;;4362727;32;318634;-88
2023/02/04 09:12:00;;;;;;;80.07;54.87;;;;;;;;;;4366553;32;318138;-88
2023/02/04 09:14:29;;;;;;;81.30;53.13;;;;;;;;;;4352442;32;318623;-87
2023/02/04 09:16:55;;;;;;;87.07;55.37;;;;;;;;;;4360463;32;336786;-88
2023/02/04 09:19:28;;;;;;;68.60;46.40;;;;;;;;;;4352054;32;317599;-88
2023/02/04 09:21:55;;;;;;;47.60;32.83;;;;;;;;;;4361426;32;318094;-88
2023/02/04 09:24:23;;;;;;;49.53;30.03;;;;;;;;;;4351850;32;318167;-88
2023/02/04 09:26:50;;;;;;;58.43;36.43;;;;;;;;;;4357376;32;344872;-88
2023/02/04 09:29:16;;;;;;;68.47;46.63;;;;;;;;;;4346829;32;354883;-88
2023/02/04 09:31:45;;;;;;;65.67;43.63;;;;;;;;;;4357801;32;318326;-88
2023/02/04 09:34:12;;;;;;;61.27;41.03;;;;;;;;;;4345696;32;342567;-88
2023/02/04 09:36:38;;;;;;;65.97;44.00;;;;;;;;;;4356948;32;317611;-88
2023/02/04 09:39:06;;;;;;;61.57;40.57;;;;;;;;;;4357307;32;318205;-88
2023/02/04 09:41:34;;;;;;;52.73;36.27;;;;;;;;;;4343664;32;416939;-88
2023/02/04 09:44:01;;;;;;;77.93;50.43;;;;;;;;;;4356200;32;318769;-88
2023/02/04 09:46:29;;;;;;;78.97;49.10;;;;;;;;;;4347420;32;318208;-88
2023/02/04 09:48:58;;;;;;;59.67;41.40;;;;;;;;;;4355647;32;318526;-88
2023/02/04 09:51:28;;;;;;;63.30;42.33;;;;;;;;;;4347629;32;318430;-88
2023/02/04 09:54:02;;;;;;;61.80;41.53;;;;;;;;;;4355742;32;318553;-88
2023/02/04 09:56:30;;;;;;;76.90;46.77;;;;;;;;;;4345725;32;318121;-88
2023/02/04 09:58:57;;;;;;;69.93;48.53;;;;;;;;;;4355806;32;318320;-89
2023/02/04 10:01:24;;;;;;;75.23;47.33;;;;;;;;;;4346517;32;318920;-89
2023/02/04 10:03:51;;;;;;;77.00;51.80;;;;;;;;;;4355906;32;318332;-89
2023/02/04 10:06:21;;;;;;;77.33;52.27;;;;;;;;;;4345811;32;322787;-89
2023/02/04 10:08:50;;;;;;;100.43;60.93;;;;;;;;;;4357287;32;317795;-89
2023/02/04 10:11:19;;;;;;;77.23;54.67;;;;;;;;;;4346188;32;319288;-88
2023/02/04 10:13:49;;;;;;;78.73;50.97;;;;;;;;;;4372863;32;316104;-88
2023/02/04 10:16:19;;;;;;;64.90;43.67;;;;;;;;;;4361970;32;317782;-87
2023/02/04 10:18:46;;;;;;;61.60;43.60;;;;;;;;;;4372027;32;316206;-88
2023/02/04 10:21:17;;;;;;;57.83;39.43;;;;;;;;;;4362027;32;316256;-88
2023/02/04 10:23:49;;;;;;;92.13;55.13;;;;;;;;;;4369034;32;328184;-88
2023/02/04 10:26:17;;;;;;;85.03;52.90;;;;;;;;;;4347574;32;318618;-88
2023/02/04 10:28:44;;;;;;;90.20;50.33;;;;;;;;;;4356141;32;317713;-88
2023/02/04 10:31:33;;;;;;;56.50;36.43;;;;;;;;;;4347243;32;318385;-87
2023/02/04 10:34:08;;;;;;;66.33;39.87;;;;;;;;;;4356701;32;318402;-88
2023/02/04 10:36:35;;;;;;;77.27;46.73;;;;;;;;;;4344368;32;417866;-87
2023/02/04 10:39:05;;;;;;;72.23;46.20;;;;;;;;;;4355924;32;346594;-88
2023/02/04 10:41:37;;;;;;;81.90;53.53;;;;;;;;;;4343923;32;417107;-87
2023/02/04 10:44:05;;;;;;;70.40;46.53;;;;;;;;;;4355413;32;317524;-87
2023/02/04 10:46:32;;;;;;;68.83;46.13;;;;;;;;;;4344359;32;417332;-87
2023/02/04 10:48:59;;;;;;;69.97;45.80;;;;;;;;;;4358871;32;318302;-87
2023/02/04 10:51:26;;;;;;;70.03;44.03;;;;;;;;;;4349713;32;318740;-87
2023/02/04 10:56:39;;;;;;;46.60;32.13;;;;;;;;;;4348179;32;388222;-87
2023/02/04 10:59:13;;;;;;;38.27;27.43;;;;;;;;;;4352738;32;318350;-87
2023/02/04 11:01:40;;;;;;;49.00;32.47;;;;;;;;;;4358753;32;318531;-87
2023/02/04 11:04:10;;;;;;;45.63;30.37;;;;;;;;;;4348095;32;318512;-87
2023/02/04 11:06:39;;;;;;;38.23;27.70;;;;;;;;;;4357850;32;318257;-87
2023/02/04 11:09:07;;;;;;;38.87;27.40;;;;;;;;;;4349282;32;318535;-87
2023/02/04 11:11:34;;;;;;;33.67;24.73;;;;;;;;;;4357920;32;318282;-87
2023/02/04 11:14:03;;;;;;;48.43;30.97;;;;;;;;;;4358834;32;318272;-87
2023/02/04 11:16:31;;;;;;;46.57;31.57;;;;;;;;;;4349159;32;317713;-88
2023/02/04 11:19:00;;;;;;;65.23;38.40;;;;;;;;;;4359143;32;318466;-87
2023/02/04 11:21:29;;;;;;;36.93;24.57;;;;;;;;;;4348237;32;318427;-89
2023/02/04 11:24:20;;;;;;;33.43;22.33;;;;;;;;;;4357555;32;318419;-88
2023/02/04 11:26:48;;;;;;;41.87;25.33;;;;;;;;;;4346341;32;417815;-87
2023/02/04 11:29:33;;;;;;;19.80;13.80;;;;;;;;;;4348418;32;318854;-88
2023/02/04 11:32:03;;;;;;;46.00;26.40;;;;;;;;;;4358983;32;318625;-88
2023/02/04 11:34:50;;;;;;;16.03;10.40;;;;;;;;;;4348864;32;317515;-88
2023/02/04 11:37:35;;;;;;;18.57;9.97;;;;;;;;;;4349455;32;318863;-88
2023/02/04 11:40:20;;;;;;;5.63;3.90;;;;;;;;;;4359194;32;317877;-88
2023/02/04 11:42:48;;;;;;;6.23;4.00;;;;;;;;;;4346540;32;416239;-90
2023/02/04 11:45:21;;;;;;;6.50;3.67;;;;;;;;;;4349319;32;316148;-87
2023/02/04 11:47:48;;;;;;;9.37;6.77;;;;;;;;;;4359674;32;315507;-87
2023/02/04 11:50:20;;;;;;;6.37;4.10;;;;;;;;;;4347895;32;324894;-88
2023/02/04 11:52:47;;;;;;;5.93;3.70;;;;;;;;;;4359019;32;316225;-87
2023/02/04 11:55:14;;;;;;;5.50;3.80;;;;;;;;;;4348675;32;316521;-87
2023/02/04 11:57:43;;;;;;;6.20;3.40;;;;;;;;;;4358950;32;316596;-87
2023/02/04 12:00:14;;;;;;;5.70;3.43;;;;;;;;;;4345043;32;352298;-88
2023/02/04 12:02:45;;;;;;;8.63;5.87;;;;;;;;;;4358304;32;315667;-88
2023/02/04 12:05:14;;;;;;;12.50;6.53;;;;;;;;;;4349339;32;315364;-90
2023/02/04 12:07:41;;;;;;;9.63;5.60;;;;;;;;;;4360231;32;316515;-90
2023/02/04 12:10:14;;;;;;;5.80;3.77;;;;;;;;;;4348775;32;315429;-89
2023/02/04 12:12:43;;;;;;;5.67;3.60;;;;;;;;;;4357619;32;315371;-88
2023/02/04 12:15:15;;;;;;;4.90;3.17;;;;;;;;;;4347532;32;316508;-88
2023/02/04 12:17:46;;;;;;;4.70;2.80;;;;;;;;;;4358635;32;315440;-87
2023/02/04 12:20:13;;;;;;;6.03;3.50;;;;;;;;;;4352051;32;316314;-88
2023/02/04 12:22:39;;;;;;;4.87;3.13;;;;;;;;;;4360672;32;316387;-90
2023/02/04 12:25:07;;;;;;;6.13;4.03;;;;;;;;;;4348805;32;316101;-87
2023/02/04 12:27:34;;;;;;;4.60;3.27;;;;;;;;;;4358353;32;315511;-88
2023/02/04 12:30:01;;;;;;;6.33;4.73;;;;;;;;;;4357755;32;316139;-87
2023/02/04 12:32:28;;;;;;;5.50;3.70;;;;;;;;;;4341239;32;330192;-88
2023/02/04 12:34:57;;;;;;;8.83;5.37;;;;;;;;;;4359306;32;315252;-88
2023/02/04 12:37:24;;;;;;;10.30;6.33;;;;;;;;;;4349146;32;316166;-88
2023/02/04 12:39:51;;;;;;;7.27;4.20;;;;;;;;;;4358820;32;316294;-90
2023/02/04 12:42:17;;;;;;;9.50;5.23;;;;;;;;;;4348472;32;315532;-89
2023/02/04 12:44:44;;;;;;;3.40;2.60;;;;;;;;;;4359534;32;315500;-88
2023/02/04 12:47:11;;;;;;;6.80;4.43;;;;;;;;;;4347750;32;315486;-88
2023/02/04 12:49:38;;;;;;;4.93;3.43;;;;;;;;;;4358362;32;315384;-88
2023/02/04 12:52:10;;;;;;;5.83;4.83;;;;;;;;;;4357433;32;316154;-88
2023/02/04 12:54:36;;;;;;;4.93;3.70;;;;;;;;;;4345920;32;413244;-88
2023/02/04 12:57:03;;;;;;;6.60;3.57;;;;;;;;;;4356620;32;315520;-88
2023/02/04 12:59:31;;;;;;;5.33;3.03;;;;;;;;;;4346905;32;315801;-87
2023/02/04 13:01:58;;;;;;;8.10;4.30;;;;;;;;;;4356748;32;315656;-88
2023/02/04 13:04:25;;;;;;;9.37;2.97;;;;;;;;;;4347144;32;316325;-90
2023/02/04 13:06:52;;;;;;;3.97;2.73;;;;;;;;;;4356407;32;315974;-88
2023/02/04 13:09:20;;;;;;;1.57;1.40;;;;;;;;;;4348120;32;315467;-88
2023/02/04 13:11:47;;;;;;;2.23;2.03;;;;;;;;;;4356312;32;315397;-89
2023/02/04 13:14:13;;;;;;;6.37;1.73;;;;;;;;;;4348516;32;316319;-88
2023/02/04 13:16:41;;;;;;;1.73;1.33;;;;;;;;;;4357912;32;316119;-89
2023/02/04 13:19:07;;;;;;;10.10;4.33;;;;;;;;;;4347534;32;315505;-89
2023/02/04 13:21:34;;;;;;;6.13;2.77;;;;;;;;;;4357593;32;316588;-88
2023/02/04 13:24:01;;;;;;;2.50;1.67;;;;;;;;;;4356601;32;315440;-88
2023/02/04 13:26:29;;;;;;;9.40;4.33;;;;;;;;;;4346515;32;316339;-89
2023/02/04 13:28:56;;;;;;;2.10;1.73;;;;;;;;;;4356502;32;315367;-88
2023/02/04 13:31:23;;;;;;;7.27;3.90;;;;;;;;;;4345715;32;351227;-88
2023/02/04 13:33:49;;;;;;;4.10;2.70;;;;;;;;;;4357155;32;315542;-88
2023/02/04 13:36:16;;;;;;;11.50;3.30;;;;;;;;;;4347202;32;315585;-89
2023/02/04 13:38:43;;;;;;;5.37;3.30;;;;;;;;;;4356069;32;316498;-89
2023/02/04 13:41:10;;;;;;;6.00;3.50;;;;;;;;;;4346335;32;316371;-88
2023/02/04 13:43:38;;;;;;;7.83;3.23;;;;;;;;;;4357041;32;315934;-88
2023/02/04 13:46:05;;;;;;;9.70;5.47;;;;;;;;;;4356798;32;315683;-89
2023/02/04 13:48:32;;;;;;;8.37;4.77;;;;;;;;;;4343533;32;415615;-90
2023/02/04 13:50:59;;;;;;;6.83;3.77;;;;;;;;;;4355725;32;316309;-88
2023/02/04 13:53:29;;;;;;;5.80;3.60;;;;;;;;;;4346858;32;315627;-89
2023/02/04 13:55:56;;;;;;;9.03;5.37;;;;;;;;;;4356522;32;316391;-89
2023/02/04 13:58:23;;;;;;;37.77;22.03;;;;;;;;;;4346574;32;316322;-88
2023/02/04 14:00:56;;;;;;;7.60;4.13;;;;;;;;;;4355989;32;318530;-89
2023/02/04 14:03:23;;;;;;;13.87;8.20;;;;;;;;;;4347680;32;316383;-88
2023/02/04 14:05:49;;;;;;;15.93;9.80;;;;;;;;;;4359939;32;316823;-88
2023/02/04 14:08:16;;;;;;;7.03;4.77;;;;;;;;;;4349555;32;317434;-88
2023/02/04 14:10:43;;;;;;;4.57;2.60;;;;;;;;;;4357045;32;315593;-88
2023/02/04 14:13:10;;;;;;;2.20;1.90;;;;;;;;;;4347070;32;316444;-88
2023/02/04 14:15:37;;;;;;;3.37;1.80;;;;;;;;;;4355985;32;316227;-88
2023/02/04 14:18:06;;;;;;;3.03;1.80;;;;;;;;;;4356301;32;316200;-88